createdAt,value
2022-10-14T00:01:49.948Z,30.60
2022-10-14T00:04:16.635Z,29.73
2022-10-14T00:06:44.671Z,26.02
2022-10-14T00:09:11.446Z,30.10
2022-10-14T00:11:41.674Z,26.90
2022-10-14T00:14:16.121Z,30.10
2022-10-14T00:16:44.036Z,25.40
2022-10-14T00:21:39.526Z,29.83
2022-10-14T00:24:07.244Z,28.00
2022-10-14T00:26:37.640Z,30.83
2022-10-14T00:29:07.053Z,34.58
2022-10-14T00:31:34.098Z,27.50
2022-10-14T00:34:01.030Z,30.30
2022-10-14T00:36:28.030Z,28.00
2022-10-14T00:38:54.945Z,23.70
2022-10-14T00:41:31.462Z,25.90
2022-10-14T00:44:04.801Z,33.03
2022-10-14T00:46:37.579Z,31.15
2022-10-14T00:49:14.615Z,30.98
2022-10-14T00:51:44.496Z,27.17
2022-10-14T00:54:15.253Z,31.13
2022-10-14T00:56:44.119Z,27.13
2022-10-14T00:59:11.014Z,30.05
2022-10-14T01:01:37.776Z,32.00
2022-10-14T01:04:04.545Z,33.60
2022-10-14T01:06:42.436Z,29.30
2022-10-14T01:09:08.928Z,33.08
2022-10-14T01:12:23.392Z,30.00
2022-10-14T01:14:46.746Z,30.65
2022-10-14T01:17:36.446Z,32.15
2022-10-14T01:20:06.040Z,32.03
2022-10-14T01:22:56.966Z,28.83
2022-10-14T01:25:34.802Z,35.63
2022-10-14T01:28:24.320Z,29.40
2022-10-14T01:30:58.176Z,31.02
2022-10-14T01:33:28.586Z,28.52
2022-10-14T01:36:08.350Z,33.95
2022-10-14T01:38:38.868Z,29.10
2022-10-14T01:41:15.632Z,29.42
2022-10-14T01:43:45.597Z,29.90
2022-10-14T01:46:13.395Z,25.63
2022-10-14T01:48:48.127Z,25.67
2022-10-14T01:51:21.088Z,24.83
2022-10-14T01:53:54.915Z,24.92
2022-10-14T01:56:22.052Z,24.90
2022-10-14T01:58:49.682Z,25.20
2022-10-14T02:01:16.638Z,23.67
2022-10-14T02:03:45.899Z,24.13
2022-10-14T02:06:42.730Z,26.08
2022-10-14T02:09:20.672Z,24.20
2022-10-14T02:12:09.111Z,19.90
2022-10-14T02:14:50.842Z,20.98
2022-10-14T02:17:20.327Z,22.90
2022-10-14T02:19:46.904Z,26.58
2022-10-14T02:22:25.359Z,21.20
2022-10-14T02:24:56.196Z,20.00
2022-10-14T02:27:26.157Z,20.65
2022-10-14T02:29:55.031Z,19.77
2022-10-14T02:32:24.718Z,17.63
2022-10-14T02:34:54.799Z,17.55
2022-10-14T02:37:22.985Z,16.67
2022-10-14T02:39:59.166Z,24.35
2022-10-14T02:42:27.776Z,20.27
2022-10-14T02:44:56.408Z,22.10
2022-10-14T02:47:25.194Z,20.15
2022-10-14T02:49:52.307Z,19.65
2022-10-14T02:52:20.054Z,18.40
2022-10-14T02:54:47.062Z,20.98
2022-10-14T02:57:15.665Z,16.48
2022-10-14T02:59:42.345Z,15.75
2022-10-14T03:02:09.200Z,17.35
2022-10-14T03:04:36.371Z,19.42
2022-10-14T03:07:03.376Z,16.83
2022-10-14T03:09:29.973Z,14.90
2022-10-14T03:11:56.703Z,14.10
2022-10-14T03:14:23.252Z,18.20
2022-10-14T03:16:49.899Z,16.92
2022-10-14T03:19:16.504Z,15.10
2022-10-14T03:21:43.236Z,18.42
2022-10-14T03:24:09.971Z,14.65
2022-10-14T03:26:36.607Z,17.27
2022-10-14T03:29:03.325Z,13.30
2022-10-14T03:31:29.988Z,15.85
2022-10-14T03:33:56.589Z,13.13
2022-10-14T03:36:23.479Z,13.63
2022-10-14T03:38:50.136Z,13.98
2022-10-14T03:41:16.797Z,14.73
2022-10-14T03:43:43.369Z,15.55
2022-10-14T03:46:10.099Z,12.23
2022-10-14T03:48:36.651Z,14.07
2022-10-14T03:51:03.395Z,15.35
2022-10-14T03:53:29.973Z,13.20
2022-10-14T03:55:56.614Z,15.25
2022-10-14T03:58:23.141Z,13.25
2022-10-14T04:00:49.723Z,12.45
2022-10-14T04:03:16.310Z,11.98
2022-10-14T04:05:42.912Z,17.17
2022-10-14T04:08:09.631Z,13.68
2022-10-14T04:10:36.292Z,13.60
2022-10-14T04:13:03.024Z,16.50
2022-10-14T04:15:29.721Z,13.00
2022-10-14T04:17:56.366Z,16.88
2022-10-14T04:20:23.471Z,17.33
2022-10-14T04:22:50.369Z,14.20
2022-10-14T04:25:17.159Z,12.30
2022-10-14T04:27:43.756Z,16.85
2022-10-14T04:30:10.845Z,14.35
2022-10-14T04:32:37.440Z,13.20
2022-10-14T04:35:05.429Z,13.32
2022-10-14T04:37:32.118Z,15.25
2022-10-14T04:39:58.636Z,15.15
2022-10-14T04:42:25.413Z,14.48
2022-10-14T04:44:52.604Z,14.68
2022-10-14T04:47:19.565Z,18.03
2022-10-14T04:49:46.175Z,14.00
2022-10-14T04:52:12.770Z,35.35
2022-10-14T04:54:39.355Z,55.30
2022-10-14T04:57:06.051Z,15.40
2022-10-14T04:59:32.765Z,16.70
2022-10-14T05:01:59.400Z,14.60
2022-10-14T05:04:26.019Z,18.48
2022-10-14T05:06:52.716Z,21.20
2022-10-14T05:09:19.450Z,18.75
2022-10-14T05:11:46.010Z,13.13
2022-10-14T05:14:12.599Z,14.70
2022-10-14T05:16:39.514Z,20.35
2022-10-14T05:19:06.251Z,18.65
2022-10-14T05:21:32.983Z,16.75
2022-10-14T05:23:59.575Z,18.15
2022-10-14T05:26:26.405Z,16.83
2022-10-14T05:28:53.073Z,15.85
2022-10-14T05:31:19.718Z,14.10
2022-10-14T05:33:46.586Z,16.23
2022-10-14T05:36:13.186Z,15.35
2022-10-14T05:38:39.824Z,14.48
2022-10-14T05:41:06.502Z,12.63
2022-10-14T05:43:33.299Z,16.27
2022-10-14T05:46:00.532Z,13.07
2022-10-14T05:48:27.291Z,13.30
2022-10-14T05:50:54.256Z,13.98
2022-10-14T05:53:20.949Z,14.17
2022-10-14T05:55:47.631Z,15.15
2022-10-14T05:58:14.462Z,13.60
2022-10-14T06:00:41.015Z,12.30
2022-10-14T06:03:08.857Z,11.50
2022-10-14T06:08:03.570Z,11.55
2022-10-14T06:10:30.178Z,17.73
2022-10-14T06:12:57.227Z,12.32
2022-10-14T06:15:23.841Z,11.80
2022-10-14T06:17:50.373Z,12.80
2022-10-14T06:20:17.146Z,12.70
2022-10-14T06:22:43.877Z,11.23
2022-10-14T06:25:10.893Z,10.82
2022-10-14T06:27:37.562Z,10.43
2022-10-14T06:33:50.814Z,9.98
2022-10-14T06:36:17.798Z,8.57
2022-10-14T06:38:44.400Z,10.43
2022-10-14T06:41:12.286Z,5.90
2022-10-14T06:46:05.992Z,11.93
2022-10-14T06:48:32.714Z,12.00
2022-10-14T06:51:00.995Z,11.32
2022-10-14T06:53:28.280Z,9.45
2022-10-14T06:56:06.804Z,10.60
2022-10-14T06:58:36.651Z,9.38
2022-10-14T07:01:05.626Z,9.43
2022-10-14T07:03:36.503Z,9.75
2022-10-14T07:06:04.863Z,9.60
2022-10-14T07:08:31.533Z,9.13
2022-10-14T07:10:58.341Z,11.02
2022-10-14T07:13:24.997Z,12.10
2022-10-14T07:15:53.563Z,14.90
2022-10-14T07:18:20.408Z,9.45
2022-10-14T07:20:47.485Z,13.82
2022-10-14T07:23:14.100Z,12.37
2022-10-14T07:25:40.740Z,11.43
2022-10-14T07:28:07.357Z,10.73
2022-10-14T07:30:34.302Z,13.48
2022-10-14T07:33:01.176Z,10.00
2022-10-14T07:35:28.118Z,12.37
2022-10-14T07:37:55.342Z,11.90
2022-10-14T07:40:21.960Z,12.32
2022-10-14T07:42:48.727Z,10.27
2022-10-14T07:45:17.781Z,10.25
2022-10-14T07:47:47.672Z,17.90
2022-10-14T07:50:14.463Z,9.07
2022-10-14T07:52:41.172Z,9.25
2022-10-14T07:55:08.136Z,10.45
2022-10-14T07:57:34.748Z,11.67
2022-10-14T08:00:01.510Z,10.75
2022-10-14T08:02:29.143Z,10.70
2022-10-14T08:05:04.165Z,12.02
2022-10-14T08:07:40.030Z,10.48
2022-10-14T08:10:07.150Z,10.00
2022-10-14T08:12:33.750Z,8.20
2022-10-14T08:15:00.387Z,9.23
2022-10-14T08:17:27.937Z,8.10
2022-10-14T08:19:54.491Z,9.43
2022-10-14T08:22:21.242Z,8.95
2022-10-14T08:24:50.138Z,10.32
2022-10-14T08:27:16.963Z,9.82
2022-10-14T08:29:43.764Z,11.48
2022-10-14T08:32:10.352Z,8.27
2022-10-14T08:34:36.890Z,8.38
2022-10-14T08:37:03.624Z,8.00
2022-10-14T08:39:30.272Z,8.38
2022-10-14T08:42:08.201Z,8.93
2022-10-14T08:44:47.559Z,8.38
2022-10-14T08:47:23.012Z,8.57
2022-10-14T08:50:07.534Z,9.80
2022-10-14T08:52:39.461Z,8.70
2022-10-14T08:55:27.030Z,5.72
2022-10-14T09:00:33.632Z,9.10
2022-10-14T09:03:10.498Z,15.00
2022-10-14T09:05:39.603Z,8.17
2022-10-14T09:08:08.441Z,9.00
2022-10-14T09:10:39.618Z,9.88
2022-10-14T09:13:18.978Z,10.73
2022-10-14T09:15:50.402Z,9.02
2022-10-14T09:18:32.893Z,10.05
2022-10-14T09:21:01.108Z,11.20
2022-10-14T09:23:28.285Z,9.75
2022-10-14T09:26:19.333Z,8.93
2022-10-14T09:28:48.473Z,7.53
2022-10-14T09:31:15.188Z,10.02
2022-10-14T09:33:43.613Z,9.02
2022-10-14T09:36:19.417Z,7.40
2022-10-14T09:38:54.563Z,8.27
2022-10-14T09:41:28.114Z,7.35
2022-10-14T09:44:33.324Z,9.10
2022-10-14T09:47:03.585Z,8.55
2022-10-14T09:49:44.000Z,9.48
2022-10-14T09:52:25.044Z,9.73
2022-10-14T09:54:57.066Z,11.38
2022-10-14T09:57:25.287Z,6.53
2022-10-14T09:59:57.592Z,9.95
2022-10-14T10:02:42.202Z,8.77
2022-10-14T10:05:25.144Z,11.57
2022-10-14T10:08:14.840Z,8.10
2022-10-14T10:10:42.118Z,10.88
2022-10-14T10:13:22.696Z,9.70
2022-10-14T10:16:00.250Z,12.68
2022-10-14T10:21:06.816Z,9.20
2022-10-14T10:23:35.586Z,11.48
2022-10-14T10:26:17.074Z,12.50
2022-10-14T10:28:49.119Z,13.25
2022-10-14T10:34:34.535Z,8.77
2022-10-14T10:37:08.598Z,14.77
2022-10-14T10:40:10.781Z,11.55
2022-10-14T10:43:12.649Z,8.07
2022-10-14T10:45:58.011Z,10.82
2022-10-14T10:48:47.644Z,10.88
2022-10-14T10:51:23.577Z,10.68
2022-10-14T10:53:50.317Z,10.48
2022-10-14T10:56:28.670Z,12.18
2022-10-14T10:59:17.164Z,14.55
2022-10-14T11:01:56.909Z,9.95
2022-10-14T11:04:32.553Z,13.75
2022-10-14T11:07:45.441Z,11.60
2022-10-14T11:10:30.481Z,15.27
2022-10-14T11:13:04.549Z,13.02
2022-10-14T11:15:33.929Z,15.43
2022-10-14T11:18:07.904Z,12.63
2022-10-14T11:20:44.093Z,11.38
2022-10-14T11:23:34.887Z,12.65
2022-10-14T11:26:46.616Z,10.40
2022-10-14T11:29:50.823Z,12.30
2022-10-14T11:32:23.601Z,11.10
2022-10-14T11:35:10.607Z,11.93
2022-10-14T11:37:46.622Z,15.93
2022-10-14T11:41:01.464Z,13.65
2022-10-14T11:43:39.759Z,18.17
2022-10-14T11:46:17.147Z,15.68
2022-10-14T11:49:00.342Z,22.58
2022-10-14T11:51:48.673Z,14.73
2022-10-14T11:54:52.233Z,16.58
2022-10-14T11:57:42.314Z,16.27
2022-10-14T12:00:22.211Z,16.48
2022-10-14T12:03:25.987Z,17.10
2022-10-14T12:06:12.825Z,15.98
2022-10-14T12:09:02.644Z,18.50
2022-10-14T12:11:46.476Z,13.70
2022-10-14T12:14:30.687Z,15.73
2022-10-14T12:17:00.374Z,17.02
2022-10-14T12:19:28.919Z,17.33
2022-10-14T12:21:58.678Z,14.70
2022-10-14T12:24:31.463Z,13.23
2022-10-14T12:27:01.698Z,18.02
2022-10-14T12:29:32.858Z,15.88
2022-10-14T12:32:07.553Z,16.83
2022-10-14T12:34:42.421Z,15.75
2022-10-14T12:37:28.726Z,15.55
2022-10-14T12:40:04.034Z,14.25
2022-10-14T12:42:35.054Z,14.88
2022-10-14T12:45:14.580Z,13.27
2022-10-14T12:47:42.591Z,13.48
2022-10-14T12:50:15.055Z,16.67
2022-10-14T12:52:46.383Z,22.45
2022-10-14T12:55:22.284Z,16.42
2022-10-14T12:58:00.394Z,15.00
2022-10-14T13:00:26.938Z,16.23
2022-10-14T13:03:01.403Z,14.35
2022-10-14T13:05:40.406Z,11.85
2022-10-14T13:08:16.133Z,14.00
2022-10-14T13:10:59.059Z,13.15
2022-10-14T13:13:53.569Z,13.75
2022-10-14T13:16:26.123Z,23.33
2022-10-14T13:18:57.992Z,15.82
2022-10-14T13:21:36.755Z,14.25
2022-10-14T13:24:27.422Z,15.07
2022-10-14T13:26:54.058Z,25.13
2022-10-14T13:29:20.690Z,12.88
2022-10-14T13:32:11.193Z,12.52
2022-10-14T13:34:44.194Z,11.13
2022-10-14T13:37:32.166Z,13.30
2022-10-14T13:40:20.089Z,8.52
2022-10-14T13:42:52.181Z,12.13
2022-10-14T13:45:21.161Z,12.05
2022-10-14T13:47:49.028Z,9.90
2022-10-14T13:52:57.065Z,9.65
2022-10-14T13:55:25.549Z,9.80
2022-10-14T13:58:13.429Z,11.07
2022-10-14T14:00:50.746Z,10.25
2022-10-14T14:03:31.668Z,10.30
2022-10-14T14:05:59.744Z,9.95
2022-10-14T14:08:40.300Z,10.85
2022-10-14T14:11:17.624Z,10.85
2022-10-14T14:14:00.374Z,11.15
2022-10-14T14:16:32.089Z,12.55
2022-10-14T14:19:14.101Z,9.73
2022-10-14T14:21:40.862Z,11.02
2022-10-14T14:24:17.033Z,10.00
2022-10-14T14:26:44.332Z,11.30
2022-10-14T14:29:19.713Z,11.77
2022-10-14T14:32:05.566Z,11.15
2022-10-14T14:34:35.864Z,13.18
2022-10-14T14:37:23.513Z,11.70
2022-10-14T14:40:02.986Z,13.45
2022-10-14T14:42:36.178Z,16.02
2022-10-14T14:45:12.890Z,16.08
2022-10-14T14:47:41.136Z,13.45
2022-10-14T14:50:29.473Z,11.40
2022-10-14T14:53:02.944Z,11.65
2022-10-14T14:56:00.571Z,13.52
2022-10-14T14:58:38.014Z,29.17
2022-10-14T15:01:06.793Z,15.75
2022-10-14T15:04:12.925Z,18.25
2022-10-14T15:06:36.005Z,12.65
2022-10-14T15:09:14.039Z,11.07
2022-10-14T15:11:58.051Z,12.65
2022-10-14T15:14:32.949Z,49.35
2022-10-14T15:17:00.189Z,30.52
2022-10-14T15:19:37.295Z,13.98
2022-10-14T15:22:16.882Z,11.55
2022-10-14T15:25:02.254Z,14.10
2022-10-14T15:27:44.339Z,31.33
2022-10-14T15:30:27.796Z,14.15
2022-10-14T15:32:57.736Z,17.67
2022-10-14T15:35:25.158Z,19.50
2022-10-14T15:37:52.146Z,13.05
2022-10-14T15:40:20.228Z,14.77
2022-10-14T15:42:48.034Z,12.43
2022-10-14T15:45:16.079Z,13.40
2022-10-14T15:47:43.104Z,14.30
2022-10-14T15:50:20.099Z,12.87
2022-10-14T15:52:46.916Z,26.02
2022-10-14T15:55:17.543Z,17.07
2022-10-14T15:57:44.112Z,16.70
2022-10-14T16:00:11.013Z,15.40
2022-10-14T16:02:37.823Z,13.83
2022-10-14T16:05:20.900Z,14.88
2022-10-14T16:07:48.548Z,12.00
2022-10-14T16:10:19.084Z,14.73
2022-10-14T16:12:46.155Z,16.80
2022-10-14T16:15:28.233Z,17.60
2022-10-14T16:17:55.075Z,14.15
2022-10-14T16:20:22.438Z,11.90
2022-10-14T16:22:49.200Z,14.18
2022-10-14T16:25:22.121Z,18.05
2022-10-14T16:27:48.811Z,18.70
2022-10-14T16:30:15.443Z,13.68
2022-10-14T16:32:42.649Z,12.98
2022-10-14T16:35:10.194Z,13.77
2022-10-14T16:37:38.293Z,23.30
2022-10-14T16:40:05.983Z,16.95
2022-10-14T16:42:32.702Z,10.98
2022-10-14T16:44:59.276Z,14.45
2022-10-14T16:47:26.856Z,22.05
2022-10-14T16:49:53.656Z,15.95
2022-10-14T16:52:21.551Z,12.40
2022-10-14T16:54:48.404Z,16.20
2022-10-14T16:57:15.269Z,15.05
2022-10-14T16:59:42.076Z,36.03
2022-10-14T17:02:14.244Z,31.60
2022-10-14T17:04:42.202Z,26.88
2022-10-14T17:07:10.043Z,13.80
2022-10-14T17:12:07.963Z,15.17
2022-10-14T17:14:37.892Z,13.73
2022-10-14T17:17:05.108Z,13.15
2022-10-14T17:19:31.758Z,11.85
2022-10-14T17:21:59.712Z,15.10
2022-10-14T17:24:26.429Z,15.52
2022-10-14T17:26:53.253Z,12.77
2022-10-14T17:29:20.630Z,18.05
2022-10-14T17:31:47.423Z,16.40
2022-10-14T17:34:14.323Z,59.05
2022-10-14T17:36:41.849Z,18.23
2022-10-14T17:39:16.467Z,15.63
2022-10-14T17:41:48.225Z,16.58
2022-10-14T17:44:14.926Z,19.83
2022-10-14T17:46:41.466Z,16.58
2022-10-14T17:49:11.710Z,12.98
2022-10-14T17:51:39.281Z,12.38
2022-10-14T17:58:41.519Z,11.15
2022-10-14T18:01:16.153Z,13.15
2022-10-14T18:03:44.751Z,11.27
2022-10-14T18:06:24.002Z,10.63
2022-10-14T18:08:56.387Z,14.38
2022-10-14T18:11:24.151Z,17.13
2022-10-14T18:13:56.684Z,14.95
2022-10-14T18:16:33.460Z,10.85
2022-10-14T18:19:05.938Z,13.70
2022-10-14T18:21:35.429Z,33.85
2022-10-14T18:24:03.055Z,34.08
2022-10-14T18:26:29.695Z,13.57
2022-10-14T18:28:58.738Z,11.82
2022-10-14T18:31:28.025Z,13.35
2022-10-14T18:33:56.872Z,11.40
2022-10-14T18:36:26.472Z,9.68
2022-10-14T18:38:58.947Z,11.52
2022-10-14T18:41:28.035Z,11.88
2022-10-14T18:43:57.301Z,10.70
2022-10-14T18:46:29.398Z,9.40
2022-10-14T18:48:57.986Z,9.15
2022-10-14T18:51:30.110Z,11.30
2022-10-14T18:53:59.274Z,13.90
2022-10-14T18:56:28.655Z,12.82
2022-10-14T19:01:30.475Z,13.15
2022-10-14T19:03:57.530Z,11.48
2022-10-14T19:06:24.292Z,9.63
2022-10-14T19:08:52.123Z,19.20
2022-10-14T19:13:48.830Z,10.38
2022-10-14T19:16:21.912Z,9.15
2022-10-14T19:18:53.212Z,10.43
2022-10-14T19:21:22.344Z,9.10
2022-10-14T19:23:50.004Z,9.40
2022-10-14T19:26:22.264Z,12.35
2022-10-14T19:28:53.408Z,9.13
2022-10-14T19:31:22.886Z,10.70
2022-10-14T19:33:49.578Z,11.32
2022-10-14T19:36:18.217Z,9.32
2022-10-14T19:38:52.326Z,8.02
2022-10-14T19:41:19.010Z,8.00
2022-10-14T19:43:45.600Z,8.50
2022-10-14T19:46:14.194Z,10.40
2022-10-14T19:48:41.185Z,8.88
2022-10-14T19:51:11.712Z,9.93
2022-10-14T19:53:39.485Z,11.00
2022-10-14T19:56:08.626Z,7.68
2022-10-14T19:58:38.608Z,10.63
2022-10-14T20:01:07.664Z,9.88
2022-10-14T20:03:34.717Z,8.73
2022-10-14T20:06:02.134Z,11.03
2022-10-14T20:08:29.152Z,9.77
2022-10-14T20:10:56.183Z,8.53
2022-10-14T20:13:22.999Z,11.70
2022-10-14T20:15:54.732Z,10.85
2022-10-14T20:18:21.739Z,10.93
2022-10-14T20:20:49.494Z,8.23
2022-10-14T20:23:19.866Z,7.60
2022-10-14T20:25:47.441Z,9.07
2022-10-14T20:28:14.458Z,11.10
2022-10-14T20:30:42.705Z,10.87
2022-10-14T20:33:10.000Z,9.38
2022-10-14T20:35:36.957Z,10.75
2022-10-14T20:38:07.113Z,10.40
2022-10-14T20:40:40.672Z,15.68
2022-10-14T20:43:07.751Z,11.02
2022-10-14T20:45:34.655Z,16.13
2022-10-14T20:48:01.653Z,11.20
2022-10-14T20:50:28.299Z,10.90
2022-10-14T20:52:54.847Z,12.93
2022-10-14T20:55:21.606Z,13.18
2022-10-14T20:57:48.234Z,12.40
2022-10-14T21:00:15.163Z,13.07
2022-10-14T21:02:44.796Z,12.90
2022-10-14T21:05:11.420Z,11.38
2022-10-14T21:07:38.061Z,10.65
2022-10-14T21:10:04.867Z,9.32
2022-10-14T21:12:31.434Z,10.20
2022-10-14T21:14:58.026Z,8.70
2022-10-14T21:17:24.695Z,8.27
2022-10-14T21:19:51.386Z,10.13
2022-10-14T21:22:17.977Z,10.43
2022-10-14T21:24:44.574Z,8.43
2022-10-14T21:27:11.259Z,8.50
2022-10-14T21:29:38.042Z,8.80
2022-10-14T21:32:05.102Z,9.80
2022-10-14T21:34:31.761Z,7.97
2022-10-14T21:36:58.857Z,8.55
2022-10-14T21:39:25.517Z,11.53
2022-10-14T21:41:52.484Z,8.30
2022-10-14T21:44:20.946Z,11.37
2022-10-14T21:46:48.748Z,9.63
2022-10-14T21:51:42.342Z,8.30
2022-10-14T21:54:12.419Z,6.67
2022-10-14T21:56:39.546Z,7.35
2022-10-14T21:59:06.883Z,7.90
2022-10-14T22:01:33.545Z,9.10
2022-10-14T22:04:05.052Z,9.25
2022-10-14T22:06:35.836Z,10.88
2022-10-14T22:09:05.434Z,9.77
2022-10-14T22:11:35.443Z,10.20
2022-10-14T22:14:04.425Z,8.13
2022-10-14T22:16:31.670Z,7.05
2022-10-14T22:19:00.727Z,7.90
2022-10-14T22:21:28.760Z,8.30
2022-10-14T22:23:55.483Z,9.95
2022-10-14T22:26:24.980Z,16.02
2022-10-14T22:29:04.469Z,8.07
2022-10-14T22:31:35.784Z,9.88
2022-10-14T22:34:04.900Z,10.32
2022-10-14T22:36:33.002Z,7.90
2022-10-14T22:39:01.256Z,10.05
2022-10-14T22:41:33.904Z,10.65
2022-10-14T22:44:03.227Z,9.02
2022-10-14T22:48:58.705Z,8.80
2022-10-14T22:54:14.266Z,9.77
2022-10-14T22:56:40.994Z,8.38
2022-10-14T22:59:11.504Z,7.95
2022-10-14T23:01:40.334Z,7.60
2022-10-14T23:04:07.077Z,8.85
2022-10-14T23:06:36.895Z,7.80
2022-10-14T23:09:04.768Z,6.65
2022-10-14T23:14:00.314Z,10.70
2022-10-14T23:16:30.066Z,8.82
2022-10-14T23:18:58.687Z,8.10
2022-10-14T23:21:28.797Z,8.65
2022-10-14T23:24:01.568Z,7.78
2022-10-14T23:26:36.200Z,7.65
2022-10-14T23:29:07.689Z,8.15
2022-10-14T23:31:36.092Z,10.35
2022-10-14T23:34:07.635Z,7.45
2022-10-14T23:36:51.894Z,8.00
2022-10-14T23:39:21.805Z,8.38
2022-10-14T23:41:53.610Z,8.63
2022-10-14T23:44:20.633Z,9.27
2022-10-14T23:47:00.048Z,9.00
2022-10-14T23:49:26.792Z,9.48
2022-10-14T23:51:54.282Z,8.25
2022-10-14T23:54:24.583Z,8.45
2022-10-14T23:56:52.879Z,8.73
